Time;durP1;ratioP1;P1;durP2;ratioP2;P2;SDS_P1;SDS_P2;PMS_P1;PMS_P2;Temp;Humidity;BMP_temperature;BMP_pressure;BME280_temperature;BME280_humidity;BME280_pressure;Samples;Min_cycle;Max_cycle;Signal;HPM_P1;HPM_P2
2024/01/13 00:02:19;;;;;;;12.18;5.15;;;3.70;99.90;;;;;;5113712;28;20051;-71
2024/01/13 00:04:45;;;;;;;9.70;3.83;;;3.80;99.90;;;;;;5114801;28;20035;-71
2024/01/13 00:07:10;;;;;;;9.00;3.53;;;3.40;99.90;;;;;;5114731;28;20066;-71
2024/01/13 00:09:36;;;;;;;8.45;3.28;;;3.50;99.90;;;;;;5114671;27;20036;-71
2024/01/13 00:12:02;;;;;;;8.25;3.55;;;3.60;99.90;;;;;;5114869;27;20047;-71
2024/01/13 00:14:28;;;;;;;6.03;3.53;;;3.60;99.90;;;;;;5114288;28;20403;-71
2024/01/13 00:16:53;;;;;;;10.05;3.53;;;3.60;99.90;;;;;;5114559;28;20127;-71
2024/01/13 00:19:19;;;;;;;8.27;3.58;;;3.60;99.90;;;;;;5114368;28;20552;-71
2024/01/13 00:21:44;;;;;;;14.93;3.42;;;3.60;99.90;;;;;;5114801;28;20040;-71
2024/01/13 00:24:10;;;;;;;7.90;2.92;;;3.70;99.90;;;;;;5114398;28;20039;-72
2024/01/13 00:26:36;;;;;;;13.50;3.80;;;3.70;99.90;;;;;;5114409;28;20118;-71
2024/01/13 00:29:01;;;;;;;8.00;3.60;;;3.50;99.90;;;;;;5114351;28;20119;-72
2024/01/13 00:31:27;;;;;;;9.35;3.55;;;3.60;99.90;;;;;;5114437;27;20031;-72
2024/01/13 00:33:52;;;;;;;6.85;3.42;;;3.70;99.90;;;;;;5114330;28;20114;-72
2024/01/13 00:36:18;;;;;;;7.25;3.60;;;3.50;99.90;;;;;;5114488;28;20038;-71
2024/01/13 00:38:44;;;;;;;19.48;3.40;;;3.80;99.90;;;;;;5114034;28;20118;-71
2024/01/13 00:41:09;;;;;;;10.10;3.40;;;3.80;99.90;;;;;;5114306;28;20077;-71
2024/01/13 00:43:36;;;;;;;9.70;3.35;;;3.60;99.90;;;;;;5114264;28;20035;-71
2024/01/13 00:46:02;;;;;;;7.13;3.17;;;3.60;99.90;;;;;;5113898;28;20036;-71
2024/01/13 00:48:28;;;;;;;11.05;3.60;;;3.70;99.90;;;;;;5114084;28;20039;-71
2024/01/13 00:50:53;;;;;;;7.78;3.22;;;3.50;99.90;;;;;;5112821;28;20050;-71
2024/01/13 00:53:19;;;;;;;8.68;2.50;;;3.50;99.90;;;;;;5114227;28;20036;-71
2024/01/13 00:55:45;;;;;;;4.85;2.83;;;3.70;99.90;;;;;;5113990;28;20036;-71
2024/01/13 00:58:11;;;;;;;8.88;2.97;;;3.50;99.90;;;;;;5113728;28;20054;-71
2024/01/13 01:00:37;;;;;;;5.72;2.20;;;3.50;99.90;;;;;;5113916;28;20040;-71
2024/01/13 01:03:03;;;;;;;5.47;2.80;;;3.90;99.90;;;;;;5113828;28;20039;-71
2024/01/13 01:05:28;;;;;;;5.05;3.00;;;3.90;99.90;;;;;;5113849;28;20088;-72
2024/01/13 01:07:54;;;;;;;6.55;2.63;;;3.70;99.90;;;;;;5113745;28;20031;-71
2024/01/13 01:10:20;;;;;;;4.93;2.10;;;3.80;99.90;;;;;;5113854;28;20444;-71
2024/01/13 01:12:45;;;;;;;4.45;2.97;;;3.50;99.90;;;;;;5113745;28;20035;-71
2024/01/13 01:15:11;;;;;;;4.80;2.40;;;3.90;99.90;;;;;;5112268;28;20448;-71
2024/01/13 01:17:37;;;;;;;4.43;1.88;;;3.60;99.90;;;;;;5112174;28;20519;-71
2024/01/13 01:20:03;;;;;;;5.25;1.80;;;3.90;99.90;;;;;;5113595;28;20161;-71
2024/01/13 01:22:29;;;;;;;5.38;1.90;;;3.50;99.90;;;;;;5113672;28;20083;-71
2024/01/13 01:24:54;;;;;;;5.22;2.45;;;3.40;99.90;;;;;;5113477;28;20503;-71
2024/01/13 01:27:20;;;;;;;7.85;2.85;;;3.60;99.90;;;;;;5111102;28;20035;-72
2024/01/13 01:29:45;;;;;;;3.38;2.13;;;3.90;99.90;;;;;;5112087;28;20036;-71
2024/01/13 01:32:11;;;;;;;7.65;2.58;;;3.80;99.90;;;;;;5113194;28;20528;-71
2024/01/13 01:34:36;;;;;;;4.55;2.60;;;3.70;99.90;;;;;;5113343;28;20074;-71
2024/01/13 01:37:02;;;;;;;9.13;3.13;;;3.80;99.90;;;;;;5113285;28;20108;-71
2024/01/13 01:39:28;;;;;;;8.75;3.50;;;3.90;99.90;;;;;;5111693;28;20040;-71
2024/01/13 01:41:53;;;;;;;5.60;2.65;;;3.90;99.90;;;;;;5113123;28;20048;-71
2024/01/13 01:44:19;;;;;;;9.73;3.17;;;3.90;99.90;;;;;;5111503;28;20138;-71
2024/01/13 01:46:46;;;;;;;7.78;2.90;;;3.80;99.90;;;;;;5112824;27;20130;-71
2024/01/13 01:49:14;;;;;;;9.88;4.15;;;3.50;99.90;;;;;;5111750;28;20379;-71
2024/01/13 01:51:42;;;;;;;6.82;3.03;;;3.90;99.90;;;;;;5111605;28;20551;-71
2024/01/13 01:54:07;;;;;;;10.02;3.95;;;3.50;99.90;;;;;;5111535;28;20035;-71
2024/01/13 01:56:34;;;;;;;8.80;3.42;;;3.50;99.90;;;;;;5111331;28;20563;-71
2024/01/13 01:59:01;;;;;;;9.80;3.28;;;3.60;99.90;;;;;;5112549;28;20035;-71
2024/01/13 02:01:30;;;;;;;5.00;3.05;;;3.90;99.90;;;;;;5111544;28;20047;-71
2024/01/13 02:03:57;;;;;;;5.68;3.03;;;3.70;99.90;;;;;;5112932;28;20043;-71
2024/01/13 02:06:24;;;;;;;5.30;3.30;;;3.90;99.90;;;;;;5112650;28;20040;-71
2024/01/13 02:08:50;;;;;;;6.40;2.92;;;3.50;99.90;;;;;;5112442;28;20038;-71
2024/01/13 02:11:16;;;;;;;4.43;2.90;;;3.70;99.90;;;;;;5112631;28;20093;-71
2024/01/13 02:13:44;;;;;;;6.07;2.85;;;3.70;99.90;;;;;;5112383;28;20036;-71
2024/01/13 02:16:10;;;;;;;6.00;2.67;;;3.90;99.90;;;;;;5111114;28;20040;-71
2024/01/13 02:18:36;;;;;;;6.03;2.55;;;3.70;99.90;;;;;;5112381;28;20075;-71
2024/01/13 02:21:02;;;;;;;5.45;2.45;;;3.50;99.90;;;;;;5112595;28;20070;-71
2024/01/13 02:23:29;;;;;;;4.32;2.42;;;3.90;99.90;;;;;;5112453;28;20031;-71
2024/01/13 02:25:55;;;;;;;6.22;2.83;;;4.00;99.90;;;;;;5112164;28;20386;-71
2024/01/13 02:28:20;;;;;;;8.52;3.25;;;3.50;99.90;;;;;;5111972;28;20107;-71
2024/01/13 02:30:46;;;;;;;5.03;2.53;;;3.50;99.90;;;;;;5112496;28;20040;-71
2024/01/13 02:33:12;;;;;;;3.63;2.00;;;3.40;99.90;;;;;;5112380;28;20422;-72
2024/01/13 02:35:37;;;;;;;4.43;2.55;;;3.60;99.90;;;;;;5112234;28;20039;-71
2024/01/13 02:38:03;;;;;;;6.95;3.13;;;3.50;99.90;;;;;;5111936;28;20135;-71
2024/01/13 02:40:28;;;;;;;8.20;2.67;;;3.80;99.90;;;;;;5112186;28;20032;-71
2024/01/13 02:42:54;;;;;;;6.80;3.65;;;3.60;99.90;;;;;;5110736;28;20047;-71
2024/01/13 02:45:20;;;;;;;5.40;2.75;;;3.80;99.90;;;;;;5110588;28;20071;-71
2024/01/13 02:47:53;;;;;;;7.95;2.70;;;3.80;99.90;;;;;;5112184;28;20127;-72
2024/01/13 02:50:18;;;;;;;6.65;2.90;;;3.90;99.90;;;;;;5112132;28;20032;-71
2024/01/13 02:52:47;;;;;;;10.48;2.83;;;3.90;99.90;;;;;;5112029;28;20483;-71
2024/01/13 02:55:12;;;;;;;11.15;3.47;;;3.40;99.90;;;;;;5110603;28;20124;-71
2024/01/13 02:57:38;;;;;;;13.40;3.25;;;3.90;99.90;;;;;;5093768;28;20071;-71
2024/01/13 03:00:05;;;;;;;7.72;2.50;;;3.90;99.90;;;;;;5112036;28;20517;-71
2024/01/13 03:02:30;;;;;;;5.00;2.20;;;3.90;99.90;;;;;;5110645;28;20040;-72
2024/01/13 03:04:56;;;;;;;7.68;2.28;;;3.50;99.90;;;;;;5110531;28;20043;-72
2024/01/13 03:07:21;;;;;;;9.95;3.38;;;3.50;99.90;;;;;;5111929;28;20450;-71
2024/01/13 03:09:47;;;;;;;7.03;2.90;;;3.50;99.90;;;;;;5111697;28;20109;-71
2024/01/13 03:12:13;;;;;;;6.25;2.72;;;3.80;99.90;;;;;;5111723;28;20384;-71
2024/01/13 03:14:38;;;;;;;5.78;3.67;;;3.70;99.90;;;;;;5111881;28;20036;-71
2024/01/13 03:17:04;;;;;;;5.97;2.60;;;4.00;99.90;;;;;;5111718;28;20050;-71
2024/01/13 03:19:29;;;;;;;6.07;2.33;;;3.60;99.90;;;;;;5111679;28;20118;-71
2024/01/13 03:21:55;;;;;;;4.75;2.70;;;3.90;99.90;;;;;;5111818;28;20039;-71
2024/01/13 03:24:21;;;;;;;9.32;2.75;;;3.70;99.90;;;;;;5111629;28;20051;-71
2024/01/13 03:26:46;;;;;;;8.80;2.72;;;3.60;99.90;;;;;;5111330;28;20036;-71
2024/01/13 03:29:12;;;;;;;6.90;3.38;;;3.60;99.90;;;;;;5111729;28;20081;-71
2024/01/13 03:31:38;;;;;;;6.57;2.70;;;4.00;99.90;;;;;;5111859;28;20036;-71
2024/01/13 03:34:03;;;;;;;5.45;2.42;;;3.60;99.90;;;;;;5111645;28;20521;-71
2024/01/13 03:36:29;;;;;;;6.28;3.00;;;3.60;99.90;;;;;;5111555;28;20039;-71
2024/01/13 03:38:56;;;;;;;8.55;2.72;;;3.80;99.90;;;;;;5111461;28;20114;-71
2024/01/13 03:41:22;;;;;;;3.67;2.13;;;3.80;99.90;;;;;;5111446;28;20138;-71
2024/01/13 03:43:48;;;;;;;4.38;2.42;;;3.60;99.90;;;;;;5111790;28;20043;-71
2024/01/13 03:46:15;;;;;;;7.72;2.50;;;3.90;99.90;;;;;;5120838;22;20052;-71
2024/01/13 03:48:41;;;;;;;6.07;2.78;;;4.00;99.90;;;;;;5089614;28;20044;-72
2024/01/13 03:51:08;;;;;;;6.22;2.40;;;3.60;99.90;;;;;;5075681;28;20104;-71
2024/01/13 03:53:34;;;;;;;5.20;2.40;;;3.60;99.90;;;;;;5094729;28;20032;-71
2024/01/13 03:55:59;;;;;;;6.28;2.38;;;3.70;99.90;;;;;;5076694;28;20410;-72
2024/01/13 03:58:25;;;;;;;6.10;2.10;;;3.70;99.90;;;;;;5059798;28;20044;-71
2024/01/13 04:00:51;;;;;;;4.80;2.10;;;3.60;99.90;;;;;;5094887;28;20043;-72
2024/01/13 04:03:16;;;;;;;4.90;2.00;;;3.90;99.90;;;;;;5076790;28;20097;-71
2024/01/13 04:05:42;;;;;;;9.68;2.47;;;3.70;99.90;;;;;;5076394;28;20487;-71
2024/01/13 04:08:07;;;;;;;6.97;2.20;;;3.90;99.90;;;;;;5094023;28;20032;-71
2024/01/13 04:10:33;;;;;;;11.13;2.22;;;3.90;99.90;;;;;;5094422;28;20552;-71
2024/01/13 04:13:00;;;;;;;3.55;1.70;;;4.00;99.90;;;;;;5094458;28;20036;-71
2024/01/13 04:15:25;;;;;;;4.57;2.35;;;3.80;99.90;;;;;;5094246;28;20480;-71
2024/01/13 04:17:52;;;;;;;7.07;1.98;;;3.90;99.90;;;;;;5076065;28;20039;-71
2024/01/13 04:20:17;;;;;;;4.60;2.08;;;3.60;99.90;;;;;;5076372;28;20040;-70
2024/01/13 04:22:43;;;;;;;8.80;2.58;;;3.60;99.90;;;;;;5076052;28;20050;-71
2024/01/13 04:25:09;;;;;;;3.95;1.77;;;4.00;99.90;;;;;;5076043;28;20032;-71
2024/01/13 04:27:34;;;;;;;6.55;2.38;;;3.90;99.90;;;;;;5094217;28;20032;-71
2024/01/13 04:30:00;;;;;;;8.45;2.95;;;3.40;99.90;;;;;;5075898;28;20097;-71
2024/01/13 04:32:25;;;;;;;6.30;2.60;;;3.40;99.90;;;;;;5075986;28;20123;-70
2024/01/13 04:34:51;;;;;;;6.95;2.80;;;3.80;99.90;;;;;;5059202;28;20116;-71
2024/01/13 04:37:17;;;;;;;7.50;2.53;;;3.70;99.90;;;;;;5093830;28;20511;-71
2024/01/13 04:39:42;;;;;;;4.53;2.63;;;3.40;99.90;;;;;;5075799;28;20120;-71
2024/01/13 04:42:08;;;;;;;4.90;3.03;;;3.80;99.90;;;;;;5059072;28;20502;-71
2024/01/13 04:44:33;;;;;;;5.57;2.50;;;3.60;99.90;;;;;;5075745;28;20131;-71
2024/01/13 04:46:59;;;;;;;9.00;2.80;;;3.90;99.90;;;;;;5093475;28;20044;-71
2024/01/13 04:49:25;;;;;;;10.27;3.00;;;3.40;99.90;;;;;;5075800;28;20043;-71
2024/01/13 04:51:50;;;;;;;5.40;2.63;;;3.50;99.90;;;;;;5093658;28;20036;-71
2024/01/13 04:54:16;;;;;;;6.95;2.80;;;3.90;99.90;;;;;;5093556;28;20032;-71
2024/01/13 04:56:42;;;;;;;6.93;2.80;;;3.50;99.90;;;;;;5075345;28;20185;-71
2024/01/13 04:59:07;;;;;;;6.07;2.35;;;3.70;99.90;;;;;;5075344;28;20556;-71
2024/01/13 05:01:33;;;;;;;4.50;2.50;;;3.90;99.90;;;;;;5092479;28;20122;-71
2024/01/13 05:03:58;;;;;;;5.70;2.65;;;3.90;99.90;;;;;;5093562;28;20048;-71
2024/01/13 05:06:24;;;;;;;6.53;2.63;;;4.00;99.90;;;;;;5075047;28;20032;-71
2024/01/13 05:08:50;;;;;;;4.45;2.33;;;3.60;99.90;;;;;;5075041;28;20469;-72
2024/01/13 05:11:17;;;;;;;6.13;2.45;;;3.50;99.90;;;;;;5093509;28;20403;-71
2024/01/13 05:13:43;;;;;;;5.63;2.20;;;3.90;99.90;;;;;;5058474;28;20106;-71
2024/01/13 05:16:09;;;;;;;9.63;2.75;;;4.00;99.90;;;;;;5093370;28;20035;-71
2024/01/13 05:18:34;;;;;;;7.50;2.40;;;3.80;99.90;;;;;;5093151;28;20036;-71
2024/01/13 05:21:00;;;;;;;8.15;2.72;;;3.90;99.90;;;;;;5093173;28;20085;-71
2024/01/13 05:23:25;;;;;;;5.45;2.63;;;3.70;99.90;;;;;;5058769;28;20040;-71
2024/01/13 05:25:51;;;;;;;12.45;3.25;;;3.90;99.90;;;;;;5093360;28;20036;-71
2024/01/13 05:28:17;;;;;;;5.00;2.30;;;3.60;99.90;;;;;;5074915;28;20036;-71
2024/01/13 05:30:43;;;;;;;6.78;2.47;;;4.00;99.90;;;;;;5075171;28;20119;-71
2024/01/13 05:33:08;;;;;;;7.95;2.90;;;4.00;99.90;;;;;;5074917;28;20126;-71
2024/01/13 05:35:34;;;;;;;5.57;2.50;;;3.70;99.90;;;;;;5075060;28;20040;-71
2024/01/13 05:37:59;;;;;;;5.25;2.08;;;3.80;99.90;;;;;;5092715;28;20036;-71
2024/01/13 05:40:25;;;;;;;9.77;3.58;;;3.80;99.90;;;;;;5092928;28;20051;-71
2024/01/13 05:42:51;;;;;;;6.95;2.28;;;4.00;99.90;;;;;;5074605;28;20036;-71
2024/01/13 05:45:17;;;;;;;5.78;2.40;;;4.00;99.90;;;;;;5092110;28;20032;-72
2024/01/13 05:47:42;;;;;;;6.80;2.00;;;3.50;99.90;;;;;;5073021;28;20534;-71
2024/01/13 05:50:09;;;;;;;7.80;2.38;;;3.90;99.90;;;;;;5057676;28;20024;-71
2024/01/13 05:52:36;;;;;;;4.88;2.17;;;3.60;99.90;;;;;;5057525;28;20028;-71
2024/01/13 05:55:03;;;;;;;5.57;2.53;;;3.70;99.90;;;;;;5092639;28;20032;-71
2024/01/13 05:57:29;;;;;;;5.38;1.90;;;3.60;99.90;;;;;;5092317;28;20036;-71
2024/01/13 05:59:54;;;;;;;6.32;5.25;;;3.70;99.90;;;;;;5073836;28;20082;-71
2024/01/13 06:02:20;;;;;;;6.32;2.20;;;3.70;99.90;;;;;;5072178;28;20089;-71
2024/01/13 06:04:49;;;;;;;4.53;1.95;;;3.70;99.90;;;;;;5070684;28;20055;-72
2024/01/13 06:07:15;;;;;;;6.57;2.38;;;3.50;99.90;;;;;;5073686;28;20039;-72
2024/01/13 06:09:40;;;;;;;4.40;2.00;;;3.50;99.90;;;;;;5074186;28;20050;-71
2024/01/13 06:12:07;;;;;;;3.95;1.73;;;3.70;99.90;;;;;;5073843;28;20047;-71
2024/01/13 06:14:33;;;;;;;7.15;1.80;;;3.70;99.90;;;;;;5074121;28;20036;-71
2024/01/13 06:16:58;;;;;;;4.32;1.90;;;3.70;99.90;;;;;;5057119;28;20104;-71
2024/01/13 06:19:24;;;;;;;4.95;2.67;;;4.00;99.90;;;;;;5091873;28;20043;-71
2024/01/13 06:21:49;;;;;;;3.25;1.73;;;3.60;99.90;;;;;;5092267;28;20090;-71
2024/01/13 06:24:15;;;;;;;3.42;1.92;;;4.00;99.90;;;;;;5073939;28;20387;-71
2024/01/13 06:26:41;;;;;;;2.85;1.27;;;3.90;99.90;;;;;;5091777;28;20507;-71
2024/01/13 06:29:08;;;;;;;3.85;1.52;;;4.00;99.90;;;;;;5073644;28;20127;-71
2024/01/13 06:31:34;;;;;;;3.22;1.90;;;3.90;99.90;;;;;;5073766;28;20085;-71
2024/01/13 06:33:59;;;;;;;3.60;1.63;;;4.00;99.90;;;;;;5091836;28;20052;-71
2024/01/13 06:36:25;;;;;;;3.92;1.40;;;3.70;99.90;;;;;;5073678;28;20046;-71
2024/01/13 06:38:51;;;;;;;5.38;1.27;;;3.60;99.90;;;;;;5091601;28;20114;-71
2024/01/13 06:41:16;;;;;;;3.10;1.30;;;3.90;99.90;;;;;;5091974;28;20035;-71
2024/01/13 06:43:42;;;;;;;3.53;1.70;;;3.50;99.90;;;;;;5073666;28;20062;-71
2024/01/13 06:46:08;;;;;;;2.70;1.15;;;3.70;99.90;;;;;;5091282;28;20114;-71
2024/01/13 06:48:34;;;;;;;2.20;1.30;;;4.00;99.90;;;;;;5073168;28;20479;-71
2024/01/13 06:50:59;;;;;;;2.35;1.25;;;3.70;99.90;;;;;;5091601;28;20105;-71
2024/01/13 06:53:25;;;;;;;2.60;1.27;;;3.80;99.90;;;;;;5073877;28;20558;-71
2024/01/13 06:55:52;;;;;;;4.55;1.38;;;4.00;99.90;;;;;;5091673;28;20059;-71
2024/01/13 06:58:18;;;;;;;2.97;1.30;;;3.70;99.90;;;;;;5091409;28;20036;-71
2024/01/13 07:00:43;;;;;;;3.80;1.92;;;4.00;99.90;;;;;;5073738;28;20043;-71
2024/01/13 07:03:09;;;;;;;2.30;1.80;;;3.80;99.90;;;;;;5073639;28;20048;-71
2024/01/13 07:05:34;;;;;;;5.63;1.23;;;3.60;99.90;;;;;;5091494;28;20407;-73
2024/01/13 07:08:00;;;;;;;2.08;1.17;;;3.70;99.90;;;;;;5091743;28;20040;-71
2024/01/13 07:10:28;;;;;;;3.22;1.25;;;4.00;99.90;;;;;;5074156;28;20032;-72
2024/01/13 07:12:53;;;;;;;2.95;1.13;;;3.60;99.90;;;;;;5074195;28;20032;-71
2024/01/13 07:15:19;;;;;;;2.33;1.33;;;3.80;99.90;;;;;;5092066;28;20090;-71
2024/01/13 07:17:45;;;;;;;3.22;1.55;;;3.50;99.90;;;;;;5073616;28;20070;-72
2024/01/13 07:20:11;;;;;;;2.90;1.10;;;3.70;99.90;;;;;;5073523;28;20040;-72
2024/01/13 07:22:37;;;;;;;3.03;1.70;;;3.70;99.90;;;;;;5073760;28;20036;-71
2024/01/13 07:25:03;;;;;;;5.57;2.13;;;4.10;99.90;;;;;;5092743;28;20094;-71
2024/01/13 07:27:29;;;;;;;3.85;1.58;;;4.00;99.90;;;;;;5077218;28;20089;-71
2024/01/13 07:29:55;;;;;;;7.55;1.58;;;3.70;99.90;;;;;;5077111;28;20040;-71
2024/01/13 07:32:21;;;;;;;2.55;1.15;;;3.90;99.90;;;;;;5077162;28;20119;-71
2024/01/13 07:34:46;;;;;;;1.80;1.25;;;4.10;99.90;;;;;;5077327;28;20067;-71
2024/01/13 07:37:12;;;;;;;3.63;1.42;;;3.70;99.90;;;;;;5095346;28;20047;-72
2024/01/13 07:39:38;;;;;;;4.43;1.50;;;4.10;99.90;;;;;;5077102;28;20044;-72
2024/01/13 07:42:03;;;;;;;4.35;1.50;;;4.00;99.90;;;;;;5077017;28;20047;-71
2024/01/13 07:44:29;;;;;;;2.78;1.10;;;4.20;99.90;;;;;;5060458;28;20040;-72
2024/01/13 07:47:00;;;;;;;6.50;1.95;;;3.90;99.90;;;;;;5094511;28;20036;-72
2024/01/13 07:49:27;;;;;;;3.70;1.85;;;4.00;99.90;;;;;;5094935;28;20096;-72
2024/01/13 07:51:54;;;;;;;5.10;2.10;;;4.10;99.90;;;;;;5095206;28;20111;-72
2024/01/13 07:54:20;;;;;;;7.35;2.80;;;3.80;99.90;;;;;;5060290;28;20399;-71
2024/01/13 07:56:46;;;;;;;5.82;2.05;;;3.80;99.90;;;;;;5076464;28;20046;-71
2024/01/13 07:59:13;;;;;;;7.82;3.30;;;4.20;99.90;;;;;;5094647;28;20097;-72
2024/01/13 08:01:39;;;;;;;10.93;3.47;;;3.90;99.90;;;;;;5076547;28;20044;-71
2024/01/13 08:04:05;;;;;;;9.23;4.57;;;4.20;99.90;;;;;;5076867;28;20119;-71
2024/01/13 08:06:31;;;;;;;13.50;5.93;;;4.30;99.90;;;;;;5076527;28;20596;-72
2024/01/13 08:08:57;;;;;;;11.45;5.68;;;4.30;99.90;;;;;;5059725;28;20132;-72
2024/01/13 08:11:23;;;;;;;16.38;5.53;;;4.10;99.90;;;;;;5094678;28;20046;-72
2024/01/13 08:13:48;;;;;;;14.60;6.18;;;3.80;99.90;;;;;;5094563;28;20119;-71
2024/01/13 08:16:14;;;;;;;16.73;7.18;;;3.80;99.90;;;;;;5094268;28;20036;-71
2024/01/13 08:18:41;;;;;;;16.00;8.32;;;4.30;99.90;;;;;;5094229;28;20044;-71
2024/01/13 08:21:06;;;;;;;16.85;8.10;;;4.20;99.90;;;;;;5059727;28;20445;-71
2024/01/13 08:23:33;;;;;;;18.15;7.88;;;4.30;99.90;;;;;;5094261;28;20040;-71
2024/01/13 08:25:59;;;;;;;20.20;8.55;;;4.30;99.90;;;;;;5075695;28;20036;-71
2024/01/13 08:28:25;;;;;;;21.83;10.23;;;4.10;99.90;;;;;;5094076;28;20044;-71
2024/01/13 08:30:51;;;;;;;18.45;8.95;;;4.30;99.90;;;;;;5076173;28;20046;-71
2024/01/13 08:33:16;;;;;;;20.77;9.30;;;4.10;99.90;;;;;;5093981;28;20043;-71
2024/01/13 08:35:43;;;;;;;27.48;10.65;;;3.80;99.90;;;;;;5093494;28;20411;-71
2024/01/13 08:38:08;;;;;;;26.77;10.95;;;3.90;99.90;;;;;;5058911;28;20058;-71
2024/01/13 08:40:34;;;;;;;23.13;12.10;;;4.20;99.90;;;;;;5093940;28;20458;-71
2024/01/13 08:43:02;;;;;;;29.60;13.88;;;4.30;99.90;;;;;;5075673;28;20119;-71
2024/01/13 08:45:29;;;;;;;28.45;14.18;;;4.30;99.90;;;;;;5093473;28;20134;-71
2024/01/13 08:47:58;;;;;;;29.45;14.55;;;4.00;99.90;;;;;;5093323;28;20051;-71
2024/01/13 08:50:25;;;;;;;34.25;15.60;;;4.20;99.90;;;;;;5072811;28;20067;-71
2024/01/13 08:52:54;;;;;;;34.08;16.33;;;3.90;99.90;;;;;;5075495;28;20044;-71
2024/01/13 08:55:20;;;;;;;39.42;18.15;;;4.30;99.90;;;;;;5093480;28;20032;-71
2024/01/13 08:57:46;;;;;;;44.47;17.88;;;4.00;99.90;;;;;;5093366;28;20055;-71
2024/01/13 09:00:13;;;;;;;40.08;19.25;;;4.30;99.90;;;;;;5075288;28;20036;-71
2024/01/13 09:02:39;;;;;;;42.42;18.38;;;4.20;99.90;;;;;;5093649;28;20047;-71
2024/01/13 09:05:08;;;;;;;49.30;21.67;;;4.30;99.90;;;;;;5093485;28;20040;-71
2024/01/13 09:07:35;;;;;;;42.25;19.08;;;3.90;99.90;;;;;;5075161;28;20403;-71
2024/01/13 09:10:02;;;;;;;46.15;19.67;;;4.20;99.90;;;;;;5075271;28;20044;-71
2024/01/13 09:12:27;;;;;;;45.38;20.20;;;4.00;99.90;;;;;;5093277;28;20120;-71
2024/01/13 09:14:53;;;;;;;53.97;21.13;;;4.00;99.90;;;;;;5075015;28;20081;-71
2024/01/13 09:17:19;;;;;;;55.47;22.05;;;4.30;99.90;;;;;;5075011;28;20126;-71
2024/01/13 09:19:44;;;;;;;52.42;23.45;;;4.40;99.90;;;;;;5093044;28;20043;-72
2024/01/13 09:22:10;;;;;;;53.65;22.80;;;4.10;99.90;;;;;;5075017;28;20051;-71
2024/01/13 09:24:35;;;;;;;60.13;26.35;;;4.00;99.90;;;;;;5093246;28;20051;-72
2024/01/13 09:27:01;;;;;;;60.83;26.35;;;4.20;99.90;;;;;;5074595;28;20407;-71
2024/01/13 09:29:27;;;;;;;55.85;25.50;;;3.90;99.90;;;;;;5074627;28;20066;-71
2024/01/13 09:31:52;;;;;;;55.75;26.98;;;4.40;99.90;;;;;;5075031;28;20376;-71
2024/01/13 09:34:18;;;;;;;58.92;25.73;;;4.30;99.90;;;;;;5092121;28;20042;-71
2024/01/13 09:36:47;;;;;;;61.25;26.25;;;3.90;99.90;;;;;;5091878;28;20032;-71
2024/01/13 09:39:14;;;;;;;60.08;27.08;;;4.30;99.90;;;;;;5074041;28;20042;-71
2024/01/13 09:41:47;;;;;;;63.13;28.60;;;4.20;99.90;;;;;;5057321;28;20036;-71
2024/01/13 09:44:29;;;;;;;75.47;31.88;;;4.40;99.90;;;;;;5070372;28;20562;-72
2024/01/13 09:47:00;;;;;;;75.97;29.00;;;4.30;99.90;;;;;;5069878;28;20028;-71
2024/01/13 09:49:29;;;;;;;68.65;30.98;;;4.30;99.90;;;;;;5073970;23;20498;-69
2024/01/13 09:51:55;;;;;;;71.30;31.15;;;4.10;99.90;;;;;;5016926;28;20076;-69
2024/01/13 09:54:29;;;;;;;68.90;33.50;;;4.20;99.90;;;;;;5011060;28;20037;-69
2024/01/13 09:56:56;;;;;;;67.88;31.60;;;4.40;99.90;;;;;;5012086;28;20034;-70
2024/01/13 09:59:24;;;;;;;70.57;32.22;;;4.10;99.90;;;;;;5016090;28;20080;-69
2024/01/13 10:01:52;;;;;;;74.40;32.20;;;4.10;99.90;;;;;;5031347;28;20045;-69
2024/01/13 10:04:17;;;;;;;84.40;33.50;;;4.20;99.90;;;;;;5023049;28;20037;-69
2024/01/13 10:06:45;;;;;;;72.72;31.85;;;4.20;99.90;;;;;;5022194;28;20038;-69
2024/01/13 10:09:11;;;;;;;73.40;31.83;;;4.40;99.90;;;;;;5030793;28;20187;-69
2024/01/13 10:11:37;;;;;;;76.20;33.55;;;4.00;99.90;;;;;;5031128;28;20553;-69
2024/01/13 10:14:05;;;;;;;76.45;33.10;;;4.10;99.90;;;;;;5024473;28;20061;-69
2024/01/13 10:16:32;;;;;;;61.22;28.63;;;4.00;99.90;;;;;;5005041;28;20041;-69
2024/01/13 10:19:08;;;;;;;81.40;33.95;;;4.40;99.90;;;;;;5020735;28;20065;-68
2024/01/13 10:21:36;;;;;;;74.00;33.40;;;4.20;99.90;;;;;;5020769;28;20041;-68
2024/01/13 10:24:02;;;;;;;74.60;32.72;;;4.20;99.90;;;;;;5018486;28;20046;-68
2024/01/13 10:26:29;;;;;;;74.30;33.88;;;4.10;99.90;;;;;;5011986;28;20046;-68
2024/01/13 10:28:56;;;;;;;65.35;31.67;;;4.50;99.90;;;;;;5010968;28;20038;-71
2024/01/13 10:31:23;;;;;;;71.78;29.92;;;4.10;99.90;;;;;;5012234;28;20117;-69
2024/01/13 10:33:50;;;;;;;66.88;29.20;;;4.10;99.90;;;;;;5012188;28;20180;-69
2024/01/13 10:36:26;;;;;;;65.95;30.15;;;4.20;99.90;;;;;;5012115;28;20046;-69
2024/01/13 10:38:51;;;;;;;68.60;31.55;;;4.30;99.90;;;;;;5011707;28;20037;-71
2024/01/13 10:41:26;;;;;;;67.47;28.85;;;4.60;99.90;;;;;;5012967;28;20541;-68
2024/01/13 10:43:54;;;;;;;68.05;30.67;;;4.50;99.90;;;;;;5031459;28;20046;-70
2024/01/13 10:46:22;;;;;;;65.00;28.33;;;4.30;99.90;;;;;;5027217;28;20042;-70
2024/01/13 10:48:51;;;;;;;59.03;28.30;;;4.40;99.90;;;;;;5021734;28;20156;-70
2024/01/13 10:51:24;;;;;;;62.78;29.98;;;4.40;99.90;;;;;;5029362;28;20041;-72
2024/01/13 10:53:51;;;;;;;64.43;30.50;;;4.50;99.90;;;;;;5030700;28;20052;-70
2024/01/13 10:56:16;;;;;;;69.63;30.38;;;4.70;99.90;;;;;;5031130;28;20041;-71
2024/01/13 10:58:49;;;;;;;58.65;27.48;;;4.40;99.90;;;;;;5031089;28;20452;-71
2024/01/13 11:01:14;;;;;;;62.95;27.27;;;4.50;99.90;;;;;;5034661;28;20037;-71
2024/01/13 11:03:45;;;;;;;57.55;25.98;;;4.50;99.90;;;;;;5035549;28;20052;-71
2024/01/13 11:06:11;;;;;;;53.35;24.17;;;4.70;99.90;;;;;;5034922;28;20053;-71
2024/01/13 11:08:37;;;;;;;52.20;23.98;;;4.30;99.90;;;;;;5035322;28;20400;-72
2024/01/13 11:11:06;;;;;;;49.72;24.58;;;4.70;99.90;;;;;;5020240;28;20037;-72
2024/01/13 11:13:38;;;;;;;48.80;22.92;;;4.70;99.90;;;;;;5035432;28;20091;-71
2024/01/13 11:16:07;;;;;;;67.75;22.95;;;4.80;99.90;;;;;;5018648;28;20092;-71
2024/01/13 11:18:45;;;;;;;45.72;21.33;;;4.60;99.90;;;;;;5024287;28;20041;-71
2024/01/13 11:21:12;;;;;;;54.10;24.15;;;4.70;99.90;;;;;;5033763;28;20057;-71
2024/01/13 11:23:56;;;;;;;47.13;21.52;;;4.90;99.90;;;;;;5035288;28;20037;-72
2024/01/13 11:26:27;;;;;;;50.00;22.02;;;4.80;99.90;;;;;;5033612;28;20042;-71
2024/01/13 11:28:55;;;;;;;41.20;20.70;;;4.80;99.90;;;;;;5034887;28;20037;-72
2024/01/13 11:31:31;;;;;;;39.28;20.65;;;4.80;99.90;;;;;;5033558;28;20110;-71
2024/01/13 11:33:59;;;;;;;51.17;20.17;;;5.00;99.90;;;;;;5035008;28;20092;-71
2024/01/13 11:36:31;;;;;;;40.25;18.58;;;4.80;99.90;;;;;;5030633;28;20041;-71
2024/01/13 11:39:00;;;;;;;46.17;20.17;;;4.60;99.90;;;;;;5029879;28;20041;-70
2024/01/13 11:41:48;;;;;;;45.95;19.70;;;4.60;99.90;;;;;;5034464;28;20045;-70
2024/01/13 11:44:22;;;;;;;37.75;19.27;;;4.90;99.90;;;;;;5034760;28;20390;-71
2024/01/13 11:47:01;;;;;;;41.75;18.50;;;4.70;99.90;;;;;;5025572;28;20079;-70
2024/01/13 11:49:33;;;;;;;42.40;18.05;;;4.90;99.90;;;;;;5027769;28;20440;-70
2024/01/13 11:52:01;;;;;;;42.65;17.65;;;5.00;99.90;;;;;;5025201;28;20404;-70
2024/01/13 11:54:28;;;;;;;38.22;18.48;;;4.60;99.90;;;;;;5023017;28;20087;-70
2024/01/13 11:56:57;;;;;;;35.03;15.05;;;5.10;99.90;;;;;;5030899;28;20467;-71
2024/01/13 11:59:22;;;;;;;27.80;13.45;;;5.10;99.90;;;;;;5034261;28;20095;-72
2024/01/13 12:01:48;;;;;;;30.20;16.45;;;4.90;99.90;;;;;;5034650;28;20125;-70
2024/01/13 12:04:16;;;;;;;31.45;14.38;;;4.90;99.90;;;;;;5034268;28;20033;-70
2024/01/13 12:06:43;;;;;;;29.00;13.75;;;5.20;99.90;;;;;;5032831;28;20045;-70
2024/01/13 12:09:11;;;;;;;34.78;14.82;;;5.00;99.90;;;;;;5034014;28;20042;-70
2024/01/13 12:11:37;;;;;;;30.73;13.38;;;4.70;99.90;;;;;;5033655;28;20046;-70
2024/01/13 12:14:03;;;;;;;32.55;14.10;;;5.10;99.90;;;;;;5032958;28;20055;-70
2024/01/13 12:16:29;;;;;;;32.50;14.45;;;4.80;99.90;;;;;;5034214;28;20556;-71
2024/01/13 12:18:55;;;;;;;26.40;12.88;;;5.00;99.90;;;;;;5033706;28;20440;-70
2024/01/13 12:21:22;;;;;;;24.40;12.77;;;5.30;99.90;;;;;;5034299;28;20033;-71
2024/01/13 12:23:48;;;;;;;28.52;12.85;;;5.20;99.90;;;;;;5034129;28;20060;-71
2024/01/13 12:26:14;;;;;;;23.30;11.35;;;5.30;99.90;;;;;;5033667;28;20116;-71
2024/01/13 12:28:40;;;;;;;22.75;12.20;;;5.30;99.90;;;;;;5033801;28;20033;-70
2024/01/13 12:31:06;;;;;;;26.48;10.93;;;4.90;99.90;;;;;;5033817;28;20042;-70
2024/01/13 12:33:32;;;;;;;24.05;11.27;;;5.10;99.90;;;;;;5032747;28;20052;-70
2024/01/13 12:36:02;;;;;;;22.77;9.98;;;5.00;99.90;;;;;;5033995;28;20088;-70
2024/01/13 12:38:31;;;;;;;19.42;10.05;;;4.90;99.90;;;;;;5033672;28;20405;-71
2024/01/13 12:40:58;;;;;;;22.48;10.65;;;5.10;99.90;;;;;;5032558;28;20042;-69
2024/01/13 12:43:25;;;;;;;19.35;9.15;;;5.00;99.90;;;;;;5032835;28;20037;-69
2024/01/13 12:45:54;;;;;;;19.83;10.35;;;4.90;99.90;;;;;;5033712;28;20458;-69
2024/01/13 12:48:20;;;;;;;21.63;10.18;;;5.00;99.90;;;;;;5032172;28;20049;-69